createdAt,value
2019-04-06T00:01:13.142Z,100103.50
2019-04-06T00:06:37.533Z,100095.23
2019-04-06T00:12:01.238Z,100093.31
2019-04-06T00:17:26.205Z,100092.88
2019-04-06T00:22:50.418Z,100088.80
2019-04-06T00:28:14.228Z,100099.03
2019-04-06T00:33:38.608Z,100095.03
2019-04-06T00:39:02.485Z,100099.11
2019-04-06T00:44:28.233Z,100101.17
2019-04-06T00:49:53.763Z,100103.80
2019-04-06T00:55:18.097Z,100112.02
2019-04-06T01:00:41.950Z,100114.56
2019-04-06T01:06:06.470Z,100117.60
2019-04-06T01:11:30.181Z,100121.42
2019-04-06T01:16:54.675Z,100122.20
2019-04-06T01:22:19.136Z,100132.92
2019-04-06T01:27:42.737Z,100136.06
2019-04-06T01:33:06.463Z,100137.40
2019-04-06T01:38:30.594Z,100141.56
2019-04-06T01:43:54.415Z,100143.77
2019-04-06T01:49:17.811Z,100148.38
2019-04-06T01:54:41.420Z,100151.84
2019-04-06T02:00:07.946Z,100151.14
2019-04-06T02:05:32.198Z,100143.65
2019-04-06T02:10:56.424Z,100151.86
2019-04-06T02:16:20.919Z,100159.17
2019-04-06T02:21:45.313Z,100161.35
2019-04-06T02:27:09.535Z,100160.64
2019-04-06T02:32:52.239Z,100156.39
2019-04-06T02:38:27.710Z,100170.09
2019-04-06T02:43:52.184Z,100179.73
2019-04-06T02:49:16.541Z,100179.25
2019-04-06T02:54:39.957Z,100177.67
2019-04-06T03:00:04.351Z,100178.52
2019-04-06T03:05:28.522Z,100173.38
2019-04-06T03:10:52.752Z,100171.41
2019-04-06T03:16:18.188Z,100174.64
2019-04-06T03:21:41.639Z,100168.50
2019-04-06T03:27:05.187Z,100161.80
2019-04-06T03:32:29.514Z,100163.42
2019-04-06T03:37:53.702Z,100179.31
2019-04-06T03:43:18.141Z,100167.80
2019-04-06T03:48:42.222Z,100172.53
2019-04-06T03:54:06.817Z,100175.89
2019-04-06T03:59:30.878Z,100170.86
2019-04-06T04:04:55.063Z,100161.84
2019-04-06T04:10:35.528Z,100160.20
2019-04-06T04:15:58.895Z,100158.74
2019-04-06T04:21:22.878Z,100151.70
2019-04-06T04:26:47.105Z,100158.02
2019-04-06T04:32:11.550Z,100154.48
2019-04-06T04:37:35.787Z,100155.05
2019-04-06T04:42:59.479Z,100157.66
2019-04-06T04:48:23.522Z,100155.27
2019-04-06T04:53:47.835Z,100160.40
2019-04-06T04:59:11.723Z,100164.34
2019-04-06T05:04:35.491Z,100170.65
2019-04-06T05:09:59.967Z,100179.12
2019-04-06T05:15:35.468Z,100175.56
2019-04-06T05:20:59.322Z,100188.97
2019-04-06T05:26:23.925Z,100185.06
2019-04-06T05:31:47.300Z,100191.55
2019-04-06T05:37:11.536Z,100191.08
2019-04-06T05:42:36.150Z,100188.67
2019-04-06T05:48:00.267Z,100191.72
2019-04-06T05:53:24.584Z,100190.91
2019-04-06T05:58:49.967Z,100202.19
2019-04-06T06:04:13.866Z,100204.62
2019-04-06T06:09:37.186Z,100202.97
2019-04-06T06:15:01.266Z,100204.99
2019-04-06T06:20:25.448Z,100206.08
2019-04-06T06:25:49.755Z,100208.93
2019-04-06T06:31:13.339Z,100214.95
2019-04-06T06:36:36.990Z,100212.31
2019-04-06T06:42:01.735Z,100222.12
2019-04-06T06:47:26.267Z,100221.13
2019-04-06T06:52:50.417Z,100222.41
2019-04-06T06:58:24.836Z,100220.62
2019-04-06T07:03:40.046Z,100221.55
2019-04-06T07:09:06.678Z,100213.67
2019-04-06T07:14:31.032Z,100218.95
2019-04-06T07:19:54.794Z,100216.22
2019-04-06T07:25:19.295Z,100216.14
2019-04-06T07:30:42.669Z,100226.69
2019-04-06T07:36:06.278Z,100221.73
2019-04-06T07:41:29.710Z,100220.78
2019-04-06T07:46:54.062Z,100225.74
2019-04-06T07:52:18.064Z,100218.41
2019-04-06T07:57:42.231Z,100225.73
2019-04-06T08:03:06.153Z,100224.05
2019-04-06T08:08:30.024Z,100215.05
2019-04-06T08:13:53.915Z,100210.52
2019-04-06T08:19:18.501Z,100217.33
2019-04-06T08:24:42.609Z,100212.87
2019-04-06T08:30:07.611Z,100209.39
2019-04-06T08:35:31.163Z,100209.41
2019-04-06T08:40:54.622Z,100209.83
2019-04-06T08:46:18.396Z,100205.67
2019-04-06T08:51:41.988Z,100201.79
2019-04-06T08:57:06.108Z,100203.00
2019-04-06T09:02:29.736Z,100195.83
2019-04-06T09:07:53.974Z,100201.80
2019-04-06T09:13:18.498Z,100198.44
2019-04-06T09:18:43.898Z,100189.27
2019-04-06T09:24:08.084Z,100194.16
2019-04-06T09:29:32.285Z,100194.16
2019-04-06T09:34:56.818Z,100180.38
2019-04-06T09:40:20.749Z,100183.89
2019-04-06T09:46:18.560Z,100181.58
2019-04-06T09:51:59.447Z,100180.55
2019-04-06T09:57:33.769Z,100182.50
2019-04-06T10:03:15.685Z,100176.20
2019-04-06T10:08:53.283Z,100161.78
2019-04-06T10:14:25.687Z,100161.23
2019-04-06T10:20:04.376Z,100156.56
2019-04-06T10:25:53.692Z,100157.41
2019-04-06T10:31:37.344Z,100161.31
2019-04-06T10:37:20.385Z,100159.34
2019-04-06T10:43:09.398Z,100158.25
2019-04-06T10:48:53.179Z,100157.71
2019-04-06T10:54:34.044Z,100157.70
2019-04-06T11:00:16.172Z,100162.02
2019-04-06T11:05:57.697Z,100157.91
2019-04-06T11:11:42.158Z,100144.86
2019-04-06T11:17:23.588Z,100151.33
2019-04-06T11:23:05.498Z,100141.67
2019-04-06T11:28:47.851Z,100144.72
2019-04-06T11:34:30.621Z,100143.20
2019-04-06T11:40:14.068Z,100135.80
2019-04-06T11:45:56.739Z,100133.93
2019-04-06T11:51:48.561Z,100130.27
2019-04-06T11:57:18.358Z,100124.59
2019-04-06T12:03:00.567Z,100119.69
2019-04-06T12:08:36.009Z,100112.70
2019-04-06T12:14:12.630Z,100110.97
2019-04-06T12:19:48.423Z,100112.70
2019-04-06T12:25:31.435Z,100099.56
2019-04-06T12:31:16.950Z,100098.48
2019-04-06T12:36:47.175Z,100096.39
2019-04-06T12:42:28.577Z,100088.53
2019-04-06T12:48:09.706Z,100085.44
2019-04-06T12:53:54.743Z,100077.00
2019-04-06T12:59:47.025Z,100080.40
2019-04-06T13:05:21.164Z,100059.80
2019-04-06T13:11:20.161Z,100065.02
2019-04-06T13:17:03.432Z,100060.19
2019-04-06T13:22:44.648Z,100054.97
2019-04-06T13:28:34.433Z,100061.94
2019-04-06T13:34:10.823Z,100054.53
2019-04-06T13:39:45.073Z,100058.34
2019-04-06T13:45:20.454Z,100041.01
2019-04-06T13:50:53.767Z,100056.09
2019-04-06T13:56:25.317Z,100050.51
2019-04-06T14:02:02.013Z,100053.77
2019-04-06T14:07:50.345Z,100049.41
2019-04-06T14:13:39.197Z,100054.91
2019-04-06T14:19:24.203Z,100040.95
2019-04-06T14:25:13.853Z,100049.12
2019-04-06T14:30:54.972Z,100046.99
2019-04-06T14:36:41.729Z,100050.56
2019-04-06T14:42:12.763Z,100053.91
2019-04-06T14:47:45.061Z,100053.81
2019-04-06T14:53:21.143Z,100053.63
2019-04-06T14:59:07.445Z,100053.67
2019-04-06T15:04:48.927Z,100041.18
2019-04-06T15:10:22.569Z,100050.33
2019-04-06T15:15:58.736Z,100053.06
2019-04-06T15:21:30.979Z,100054.05
2019-04-06T15:27:19.640Z,100048.13
2019-04-06T15:32:56.011Z,100052.68
2019-04-06T15:38:48.605Z,100049.70
2019-04-06T15:44:30.186Z,100049.22
2019-04-06T15:50:08.713Z,100046.02
2019-04-06T15:55:40.091Z,100053.72
2019-04-06T16:01:23.760Z,100050.97
2019-04-06T16:07:07.338Z,100051.89
2019-04-06T16:12:43.456Z,100046.84
2019-04-06T16:18:28.971Z,100053.09
2019-04-06T16:24:03.072Z,100051.14
2019-04-06T16:29:36.946Z,100055.28
2019-04-06T16:35:09.852Z,100050.45
2019-04-06T16:41:10.502Z,100057.37
2019-04-06T16:46:50.556Z,100058.78
2019-04-06T16:52:41.383Z,100060.15
2019-04-06T16:58:24.726Z,100068.94
2019-04-06T17:03:58.901Z,100061.02
2019-04-06T17:09:30.064Z,100064.50
2019-04-06T17:15:06.356Z,100074.87
2019-04-06T17:20:47.473Z,100074.27
2019-04-06T17:26:33.748Z,100079.89
2019-04-06T17:32:16.569Z,100078.05
2019-04-06T17:38:04.969Z,100081.90
2019-04-06T17:43:56.729Z,100089.09
2019-04-06T17:49:29.278Z,100093.48
2019-04-06T17:55:04.878Z,100102.75
2019-04-06T18:00:39.465Z,100109.56
2019-04-06T18:06:16.349Z,100112.91
2019-04-06T18:11:48.063Z,100116.13
2019-04-06T18:17:12.871Z,100121.31
2019-04-06T18:22:37.867Z,100129.33
2019-04-06T18:28:01.637Z,100130.84
2019-04-06T18:33:26.100Z,100138.50
2019-04-06T18:39:04.177Z,100147.09
2019-04-06T18:44:29.056Z,100144.45
2019-04-06T18:49:53.760Z,100148.09
2019-04-06T18:55:18.242Z,100146.94
2019-04-06T19:00:42.339Z,100154.19
2019-04-06T19:06:07.133Z,100152.19
2019-04-06T19:11:31.327Z,100154.80
2019-04-06T19:16:55.956Z,100155.45
2019-04-06T19:22:19.820Z,100157.41
2019-04-06T19:27:43.673Z,100154.45
2019-04-06T19:33:08.331Z,100157.87
2019-04-06T19:38:32.544Z,100148.86
2019-04-06T19:43:56.603Z,100158.11
2019-04-06T19:49:21.160Z,100154.28
2019-04-06T19:54:44.699Z,100158.79
2019-04-06T20:00:09.743Z,100158.47
2019-04-06T20:05:33.304Z,100158.80
2019-04-06T20:10:57.643Z,100154.73
2019-04-06T20:16:21.822Z,100152.33
2019-04-06T20:21:45.510Z,100164.02
2019-04-06T20:27:09.382Z,100157.73
2019-04-06T20:32:32.893Z,100152.91
2019-04-06T20:37:56.257Z,100154.22
2019-04-06T20:43:19.813Z,100158.29
2019-04-06T20:48:44.682Z,100155.08
2019-04-06T20:54:09.194Z,100148.20
2019-04-06T20:59:33.231Z,100153.53
2019-04-06T21:04:57.812Z,100149.03
2019-04-06T21:10:22.158Z,100151.44
2019-04-06T21:15:46.365Z,100157.30
2019-04-06T21:21:11.003Z,100156.05
2019-04-06T21:26:34.483Z,100161.12
2019-04-06T21:31:59.507Z,100160.26
2019-04-06T21:37:25.452Z,100154.42
2019-04-06T21:42:49.089Z,100152.23
2019-04-06T21:48:13.517Z,100149.66
2019-04-06T21:53:37.815Z,100145.80
2019-04-06T21:59:01.627Z,100141.52
2019-04-06T22:04:26.919Z,100139.04
2019-04-06T22:09:51.597Z,100142.26
2019-04-06T22:15:16.367Z,100139.00
2019-04-06T22:20:42.050Z,100136.38
2019-04-06T22:26:06.198Z,100134.52
2019-04-06T22:31:30.555Z,100137.55
2019-04-06T22:36:55.937Z,100134.84
2019-04-06T22:42:19.670Z,100123.02
2019-04-06T22:47:44.123Z,100117.98
2019-04-06T22:53:08.746Z,100119.64
2019-04-06T22:58:33.395Z,100122.64
2019-04-06T23:04:15.191Z,100122.37
2019-04-06T23:09:38.541Z,100120.46
2019-04-06T23:15:02.048Z,100118.67
2019-04-06T23:20:25.919Z,100117.20
2019-04-06T23:25:50.233Z,100112.22
2019-04-06T23:31:14.718Z,100122.86
2019-04-06T23:36:38.123Z,100124.38
2019-04-06T23:42:01.839Z,100129.34
2019-04-06T23:47:25.625Z,100137.65
2019-04-06T23:52:49.226Z,100121.95
2019-04-06T23:58:14.065Z,100123.62
